createdAt,value
2018-07-17T00:00:10.698Z,20.80
2018-07-17T00:02:38.637Z,20.80
2018-07-17T00:05:07.362Z,20.80
2018-07-17T00:07:35.014Z,20.80
2018-07-17T00:10:02.675Z,20.90
2018-07-17T00:12:30.309Z,20.90
2018-07-17T00:14:57.910Z,20.80
2018-07-17T00:17:25.716Z,20.80
2018-07-17T00:19:53.436Z,20.80
2018-07-17T00:22:21.132Z,20.70
2018-07-17T00:24:48.761Z,20.70
2018-07-17T00:27:16.388Z,20.80
2018-07-17T00:29:43.950Z,20.80
2018-07-17T00:32:11.599Z,20.80
2018-07-17T00:34:39.287Z,20.80
2018-07-17T00:37:06.976Z,20.80
2018-07-17T00:39:34.588Z,20.80
2018-07-17T00:42:02.222Z,20.80
2018-07-17T00:44:29.997Z,20.80
2018-07-17T00:46:57.698Z,20.80
2018-07-17T00:49:25.573Z,20.80
2018-07-17T00:51:53.153Z,20.80
2018-07-17T00:54:20.776Z,20.80
2018-07-17T00:56:48.387Z,20.80
2018-07-17T00:59:16.018Z,20.70
2018-07-17T01:01:49.373Z,20.70
2018-07-17T01:04:22.641Z,20.70
2018-07-17T01:06:55.925Z,20.70
2018-07-17T01:09:29.002Z,20.70
2018-07-17T01:12:02.177Z,20.70
2018-07-17T01:14:41.205Z,20.70
2018-07-17T01:19:36.584Z,20.40
2018-07-17T01:22:04.172Z,20.40
2018-07-17T01:24:31.780Z,20.30
2018-07-17T01:26:59.383Z,20.10
2018-07-17T01:29:27.048Z,20.10
2018-07-17T01:31:54.644Z,20.00
2018-07-17T01:34:22.284Z,19.90
2018-07-17T01:36:49.897Z,19.90
2018-07-17T01:39:17.543Z,19.80
2018-07-17T01:41:45.318Z,19.70
2018-07-17T01:44:16.177Z,19.70
2018-07-17T01:46:44.535Z,19.60
2018-07-17T01:49:12.416Z,19.60
2018-07-17T01:51:40.049Z,19.60
2018-07-17T01:54:07.706Z,19.50
2018-07-17T01:56:35.585Z,19.50
2018-07-17T01:59:03.248Z,19.40
2018-07-17T02:01:30.893Z,19.40
2018-07-17T02:03:58.488Z,19.40
2018-07-17T02:06:26.112Z,19.30
2018-07-17T02:08:53.711Z,19.20
2018-07-17T02:11:21.270Z,19.20
2018-07-17T02:13:48.882Z,19.20
2018-07-17T02:16:16.530Z,19.20
2018-07-17T02:18:44.199Z,19.20
2018-07-17T02:21:11.738Z,19.10
2018-07-17T02:23:39.352Z,19.10
2018-07-17T02:26:07.032Z,19.00
2018-07-17T02:28:34.626Z,19.00
2018-07-17T02:31:02.250Z,18.90
2018-07-17T02:33:29.836Z,18.90
2018-07-17T02:35:57.449Z,18.90
2018-07-17T02:38:25.064Z,18.90
2018-07-17T02:40:52.715Z,18.90
2018-07-17T02:43:20.380Z,18.90
2018-07-17T02:45:48.041Z,18.80
2018-07-17T02:48:15.906Z,18.90
2018-07-17T02:50:43.712Z,18.80
2018-07-17T02:53:11.312Z,18.90
2018-07-17T02:55:38.977Z,18.90
2018-07-17T02:58:06.573Z,18.90
2018-07-17T03:00:34.177Z,18.90
2018-07-17T03:05:29.946Z,18.80
2018-07-17T03:07:57.629Z,18.80
2018-07-17T03:10:25.285Z,18.80
2018-07-17T03:12:53.293Z,18.70
2018-07-17T03:15:20.887Z,18.70
2018-07-17T03:17:48.507Z,18.70
2018-07-17T03:20:16.171Z,18.80
2018-07-17T03:22:43.780Z,18.70
2018-07-17T03:25:11.391Z,18.70
2018-07-17T03:30:06.763Z,18.70
2018-07-17T03:32:34.375Z,18.60
2018-07-17T03:35:02.006Z,18.60
2018-07-17T03:37:29.575Z,18.60
2018-07-17T03:39:57.175Z,18.50
2018-07-17T03:42:24.779Z,18.40
2018-07-17T03:44:52.425Z,18.40
2018-07-17T03:47:20.015Z,18.40
2018-07-17T03:49:47.679Z,18.40
2018-07-17T03:52:15.431Z,18.30
2018-07-17T03:54:43.069Z,18.40
2018-07-17T03:57:10.693Z,18.30
2018-07-17T03:59:38.295Z,18.30
2018-07-17T04:02:06.171Z,18.20
2018-07-17T04:04:33.872Z,18.10
2018-07-17T04:07:01.532Z,18.10
2018-07-17T04:09:29.166Z,18.10
2018-07-17T04:11:56.806Z,18.10
2018-07-17T04:14:24.555Z,18.10
2018-07-17T04:16:54.246Z,18.10
2018-07-17T04:19:22.401Z,18.10
2018-07-17T04:21:50.686Z,18.10
2018-07-17T04:24:18.882Z,18.10
2018-07-17T04:26:46.616Z,18.10
2018-07-17T04:29:14.342Z,18.10
2018-07-17T04:31:42.427Z,18.00
2018-07-17T04:34:10.066Z,18.10
2018-07-17T04:36:37.745Z,18.10
2018-07-17T04:39:07.918Z,18.20
2018-07-17T04:41:35.652Z,18.20
2018-07-17T04:44:03.401Z,18.20
2018-07-17T04:46:31.040Z,18.20
2018-07-17T04:48:58.692Z,18.20
2018-07-17T04:51:26.350Z,18.20
2018-07-17T04:53:54.029Z,18.30
2018-07-17T04:56:21.564Z,18.30
2018-07-17T04:58:49.220Z,18.40
2018-07-17T05:01:16.858Z,18.40
2018-07-17T05:03:44.512Z,18.30
2018-07-17T05:06:12.116Z,18.30
2018-07-17T05:08:39.719Z,18.30
2018-07-17T05:11:07.325Z,18.30
2018-07-17T05:13:34.919Z,18.30
2018-07-17T05:16:02.556Z,18.30
2018-07-17T05:18:30.179Z,18.40
2018-07-17T05:20:57.809Z,18.50
2018-07-17T05:23:25.444Z,18.50
2018-07-17T05:25:53.081Z,18.50
2018-07-17T05:28:20.710Z,18.50
2018-07-17T05:30:48.327Z,18.60
2018-07-17T05:33:15.928Z,18.60
2018-07-17T05:35:43.633Z,18.60
2018-07-17T05:38:11.232Z,18.60
2018-07-17T05:40:38.826Z,18.50
2018-07-17T05:43:06.512Z,18.60
2018-07-17T05:45:34.112Z,18.70
2018-07-17T05:48:01.764Z,18.80
2018-07-17T05:50:29.415Z,18.90
2018-07-17T05:52:57.044Z,18.90
2018-07-17T05:55:24.812Z,18.90
2018-07-17T05:57:52.563Z,18.90
2018-07-17T06:00:20.184Z,18.90
2018-07-17T06:02:47.785Z,18.90
2018-07-17T06:05:15.470Z,18.90
2018-07-17T06:07:43.080Z,19.00
2018-07-17T06:10:10.705Z,19.00
2018-07-17T06:12:38.325Z,19.00
2018-07-17T06:15:06.615Z,19.00
2018-07-17T06:17:34.413Z,19.00
2018-07-17T06:20:02.119Z,19.10
2018-07-17T06:22:29.712Z,19.20
2018-07-17T06:24:57.442Z,19.20
2018-07-17T06:27:25.089Z,19.30
2018-07-17T06:29:52.686Z,19.30
2018-07-17T06:32:20.297Z,19.40
2018-07-17T06:34:47.934Z,19.40
2018-07-17T06:37:15.577Z,19.50
2018-07-17T06:39:43.254Z,19.70
2018-07-17T06:42:10.941Z,19.70
2018-07-17T06:44:38.708Z,19.80
2018-07-17T06:47:06.313Z,20.00
2018-07-17T06:49:33.995Z,20.00
2018-07-17T06:52:01.627Z,19.90
2018-07-17T06:54:29.201Z,19.90
2018-07-17T06:56:56.821Z,20.00
2018-07-17T06:59:24.406Z,20.20
2018-07-17T07:01:52.028Z,20.30
2018-07-17T07:04:19.721Z,20.40
2018-07-17T07:06:47.308Z,20.60
2018-07-17T07:09:14.931Z,20.70
2018-07-17T07:11:42.536Z,20.50
2018-07-17T07:14:10.120Z,20.50
2018-07-17T07:16:37.722Z,20.70
2018-07-17T07:19:05.476Z,20.70
2018-07-17T07:21:33.109Z,20.80
2018-07-17T07:24:00.672Z,20.90
2018-07-17T07:26:28.287Z,20.90
2018-07-17T07:28:55.987Z,21.00
2018-07-17T07:31:23.623Z,21.00
2018-07-17T07:33:51.249Z,20.90
2018-07-17T07:36:18.836Z,20.90
2018-07-17T07:38:46.425Z,20.90
2018-07-17T07:41:14.050Z,21.00
2018-07-17T07:43:41.640Z,21.10
2018-07-17T07:46:09.316Z,21.20
2018-07-17T07:48:36.964Z,21.30
2018-07-17T07:51:04.692Z,21.50
2018-07-17T07:53:32.280Z,21.70
2018-07-17T07:55:59.929Z,21.90
2018-07-17T07:58:27.528Z,21.90
2018-07-17T08:00:55.125Z,22.00
2018-07-17T08:03:22.801Z,22.00
2018-07-17T08:05:50.423Z,22.10
2018-07-17T08:08:18.109Z,22.20
2018-07-17T08:10:45.753Z,22.40
2018-07-17T08:13:13.315Z,22.50
2018-07-17T08:15:40.883Z,22.70
2018-07-17T08:18:08.494Z,22.70
2018-07-17T08:20:36.123Z,22.70
2018-07-17T08:23:03.819Z,22.70
2018-07-17T08:25:31.467Z,22.80
2018-07-17T08:27:59.038Z,22.90
2018-07-17T08:30:26.727Z,23.20
2018-07-17T08:35:22.046Z,23.50
2018-07-17T08:40:17.301Z,23.70
2018-07-17T08:42:44.902Z,23.80
2018-07-17T08:45:12.515Z,23.80
2018-07-17T08:47:40.137Z,24.00
2018-07-17T08:50:07.773Z,24.20
2018-07-17T08:52:35.582Z,24.20
2018-07-17T08:55:03.279Z,24.20
2018-07-17T08:57:31.137Z,24.30
2018-07-17T08:59:58.796Z,24.30
2018-07-17T09:02:26.401Z,24.30
2018-07-17T09:04:54.003Z,24.20
2018-07-17T09:07:21.629Z,24.20
2018-07-17T09:09:49.233Z,24.10
2018-07-17T09:12:16.867Z,24.30
2018-07-17T09:14:44.533Z,24.60
2018-07-17T09:17:12.150Z,24.80
2018-07-17T09:19:39.760Z,24.70
2018-07-17T09:22:07.406Z,24.80
2018-07-17T09:24:35.044Z,24.90
2018-07-17T09:27:02.656Z,25.00
2018-07-17T09:29:30.297Z,24.90
2018-07-17T09:31:57.896Z,24.80
2018-07-17T09:34:25.488Z,25.00
2018-07-17T09:36:53.116Z,25.10
2018-07-17T09:39:20.744Z,25.20
2018-07-17T09:41:48.344Z,25.60
2018-07-17T09:44:16.054Z,26.10
2018-07-17T09:46:43.655Z,26.30
2018-07-17T09:49:11.297Z,26.30
2018-07-17T09:51:39.010Z,26.40
2018-07-17T09:54:06.653Z,26.30
2018-07-17T09:56:34.253Z,26.50
2018-07-17T09:59:01.857Z,26.50
2018-07-17T10:01:35.140Z,26.40
2018-07-17T10:04:02.788Z,26.20
2018-07-17T10:06:30.425Z,26.30
2018-07-17T10:08:57.960Z,26.50
2018-07-17T10:11:25.613Z,26.60
2018-07-17T10:13:53.213Z,26.40
2018-07-17T10:16:20.870Z,26.20
2018-07-17T10:18:48.463Z,26.50
2018-07-17T10:21:16.178Z,26.50
2018-07-17T10:23:43.782Z,26.40
2018-07-17T10:26:11.424Z,26.70
2018-07-17T10:28:39.002Z,26.70
2018-07-17T10:31:06.896Z,26.90
2018-07-17T10:33:34.496Z,26.70
2018-07-17T10:36:02.080Z,26.70
2018-07-17T10:38:29.723Z,26.70
2018-07-17T10:40:57.318Z,26.70
2018-07-17T10:43:24.912Z,26.70
2018-07-17T10:45:52.496Z,26.80
2018-07-17T10:48:20.131Z,27.10
2018-07-17T10:50:47.739Z,27.10
2018-07-17T10:53:15.342Z,27.30
2018-07-17T10:55:42.951Z,27.50
2018-07-17T11:00:38.370Z,27.70
2018-07-17T11:03:06.025Z,28.10
2018-07-17T11:05:33.622Z,28.00
2018-07-17T11:08:01.257Z,27.70
2018-07-17T11:12:56.553Z,27.30
2018-07-17T11:15:24.136Z,27.50
2018-07-17T11:17:51.941Z,28.10
2018-07-17T11:20:19.630Z,27.80
2018-07-17T11:22:47.213Z,27.80
2018-07-17T11:25:14.820Z,27.90
2018-07-17T11:27:42.453Z,28.10
2018-07-17T11:30:10.163Z,28.30
2018-07-17T11:32:37.771Z,28.40
2018-07-17T11:35:05.716Z,28.30
2018-07-17T11:37:33.367Z,28.40
2018-07-17T11:40:01.019Z,28.90
2018-07-17T11:42:28.679Z,29.10
2018-07-17T11:44:56.280Z,29.20
2018-07-17T11:47:23.827Z,29.30
2018-07-17T11:49:51.397Z,29.30
2018-07-17T11:52:18.956Z,29.10
2018-07-17T11:54:46.568Z,29.30
2018-07-17T11:57:14.178Z,29.40
2018-07-17T11:59:41.736Z,29.50
2018-07-17T12:02:09.327Z,29.30
2018-07-17T12:04:36.913Z,29.40
2018-07-17T12:07:04.460Z,29.50
2018-07-17T12:09:32.033Z,29.60
2018-07-17T12:11:59.635Z,29.70
2018-07-17T12:14:27.214Z,29.60
2018-07-17T12:16:54.781Z,29.70
2018-07-17T12:19:22.363Z,29.60
2018-07-17T12:21:49.985Z,29.30
2018-07-17T12:24:17.613Z,29.10
2018-07-17T12:26:45.272Z,29.00
2018-07-17T12:29:12.836Z,29.00
2018-07-17T12:34:08.018Z,29.70
2018-07-17T12:36:35.580Z,29.80
2018-07-17T12:39:03.939Z,29.80
2018-07-17T12:41:31.635Z,29.60
2018-07-17T12:43:59.240Z,29.60
2018-07-17T12:46:26.906Z,29.80
2018-07-17T12:48:54.465Z,29.80
2018-07-17T12:51:22.112Z,29.70
2018-07-17T12:53:49.753Z,29.90
2018-07-17T12:56:17.409Z,29.80
2018-07-17T12:58:45.027Z,29.70
2018-07-17T13:01:12.729Z,29.80
2018-07-17T13:03:40.416Z,29.90
2018-07-17T13:06:08.069Z,30.00
2018-07-17T13:08:35.741Z,30.30
2018-07-17T13:11:03.389Z,30.20
2018-07-17T13:13:30.977Z,30.50
2018-07-17T13:15:58.639Z,30.40
2018-07-17T13:18:26.280Z,30.50
2018-07-17T13:23:21.417Z,30.90
2018-07-17T13:25:49.014Z,31.10
2018-07-17T13:28:16.826Z,30.90
2018-07-17T13:30:44.462Z,30.90
2018-07-17T13:35:39.689Z,30.50
2018-07-17T13:38:07.280Z,30.60
2018-07-17T13:40:34.929Z,30.90
2018-07-17T13:43:02.517Z,30.90
2018-07-17T13:45:30.588Z,31.20
2018-07-17T13:47:58.187Z,31.20
2018-07-17T13:50:25.880Z,31.30
2018-07-17T13:52:54.668Z,31.30
2018-07-17T13:55:22.379Z,31.50
2018-07-17T13:57:49.985Z,31.40
2018-07-17T14:00:17.787Z,31.20
2018-07-17T14:02:45.382Z,31.30
2018-07-17T14:05:13.019Z,31.70
2018-07-17T14:07:40.625Z,31.40
2018-07-17T14:10:08.275Z,31.20
2018-07-17T14:12:35.837Z,31.60
2018-07-17T14:15:03.693Z,31.20
2018-07-17T14:17:31.307Z,31.20
2018-07-17T14:19:58.860Z,31.20
2018-07-17T14:22:26.466Z,31.10
2018-07-17T14:24:54.050Z,31.20
2018-07-17T14:27:21.618Z,31.30
2018-07-17T14:32:16.769Z,31.00
2018-07-17T14:34:44.327Z,31.00
2018-07-17T14:37:11.906Z,30.40
2018-07-17T14:39:39.509Z,30.40
2018-07-17T14:44:34.751Z,31.70
2018-07-17T14:47:02.411Z,31.30
2018-07-17T14:49:30.001Z,30.70
2018-07-17T14:51:57.581Z,30.30
2018-07-17T14:54:25.149Z,29.60
2018-07-17T14:56:52.720Z,29.50
2018-07-17T14:59:20.492Z,29.40
2018-07-17T15:01:48.138Z,29.90
2018-07-17T15:04:15.792Z,30.30
2018-07-17T15:06:43.390Z,30.40
2018-07-17T15:09:10.977Z,30.90
2018-07-17T15:11:38.621Z,31.30
2018-07-17T15:14:06.226Z,31.70
2018-07-17T15:16:33.872Z,32.30
2018-07-17T15:19:01.455Z,32.20
2018-07-17T15:21:29.052Z,32.20
2018-07-17T15:23:56.665Z,32.20
2018-07-17T15:26:24.306Z,32.30
2018-07-17T15:28:51.928Z,33.00
2018-07-17T15:31:19.586Z,32.70
2018-07-17T15:33:47.147Z,31.90
2018-07-17T15:36:14.830Z,31.60
2018-07-17T15:38:42.420Z,32.20
2018-07-17T15:41:10.109Z,33.00
2018-07-17T15:43:37.789Z,33.00
2018-07-17T15:46:05.392Z,32.90
2018-07-17T15:48:33.016Z,33.70
2018-07-17T15:51:00.660Z,33.80
2018-07-17T15:53:28.366Z,33.50
2018-07-17T15:55:55.918Z,33.40
2018-07-17T15:58:23.497Z,32.40
2018-07-17T16:00:51.145Z,31.50
2018-07-17T16:03:18.968Z,31.50
2018-07-17T16:05:46.651Z,31.20
2018-07-17T16:08:14.229Z,31.20
2018-07-17T16:10:41.913Z,31.10
2018-07-17T16:13:09.525Z,31.00
2018-07-17T16:15:37.181Z,30.90
2018-07-17T16:18:04.970Z,30.50
2018-07-17T16:20:32.608Z,30.50
2018-07-17T16:23:00.241Z,31.10
2018-07-17T16:25:27.860Z,30.80
2018-07-17T16:27:56.329Z,31.00
2018-07-17T16:30:24.178Z,30.90
2018-07-17T16:32:51.783Z,30.30
2018-07-17T16:35:19.429Z,30.60
2018-07-17T16:37:47.092Z,31.20
2018-07-17T16:40:14.786Z,30.80
2018-07-17T16:42:42.431Z,31.20
2018-07-17T16:45:10.085Z,31.80
2018-07-17T16:47:37.723Z,32.30
2018-07-17T16:50:05.535Z,31.50
2018-07-17T16:52:33.240Z,31.20
2018-07-17T16:55:00.958Z,31.50
2018-07-17T16:57:28.615Z,32.30
2018-07-17T16:59:56.296Z,32.90
2018-07-17T17:02:23.890Z,33.10
2018-07-17T17:04:51.506Z,32.60
2018-07-17T17:07:19.129Z,32.10
2018-07-17T17:09:46.804Z,31.70
2018-07-17T17:12:14.576Z,31.10
2018-07-17T17:14:42.248Z,30.20
2018-07-17T17:17:09.992Z,29.50
2018-07-17T17:19:37.586Z,29.20
2018-07-17T17:22:05.218Z,29.10
2018-07-17T17:24:32.848Z,29.20
2018-07-17T17:27:00.457Z,29.40
2018-07-17T17:29:28.172Z,29.00
2018-07-17T17:34:23.316Z,28.50
2018-07-17T17:36:50.988Z,28.40
2018-07-17T17:39:18.607Z,28.30
2018-07-17T17:41:46.249Z,28.40
2018-07-17T17:44:13.856Z,29.30
2018-07-17T17:46:49.104Z,29.90
2018-07-17T17:49:26.349Z,30.70
2018-07-17T17:52:00.639Z,31.50
2018-07-17T17:54:46.589Z,32.40
2018-07-17T17:57:23.027Z,33.20
2018-07-17T17:59:50.684Z,33.40
2018-07-17T18:02:18.302Z,33.20
2018-07-17T18:04:53.031Z,32.60
2018-07-17T18:07:22.277Z,31.60
2018-07-17T18:09:54.844Z,31.30
2018-07-17T18:12:28.000Z,30.70
2018-07-17T18:15:00.845Z,29.90
2018-07-17T18:17:34.903Z,29.10
2018-07-17T18:20:09.237Z,28.60
2018-07-17T18:22:37.910Z,28.10
2018-07-17T18:25:12.655Z,27.80
2018-07-17T18:27:40.452Z,27.60
2018-07-17T18:30:08.045Z,27.30
2018-07-17T18:32:35.659Z,27.10
2018-07-17T18:35:03.340Z,26.90
2018-07-17T18:37:31.325Z,26.70
2018-07-17T18:39:59.032Z,26.50
2018-07-17T18:42:26.596Z,26.30
2018-07-17T18:44:54.182Z,26.10
2018-07-17T18:47:21.882Z,26.10
2018-07-17T18:50:11.997Z,26.10
2018-07-17T18:52:17.296Z,26.10
2018-07-17T18:54:44.869Z,25.90
2018-07-17T18:57:12.493Z,25.80
2018-07-17T18:59:40.151Z,25.90
2018-07-17T19:02:08.740Z,25.80
2018-07-17T19:04:36.974Z,25.60
2018-07-17T19:07:04.709Z,25.50
2018-07-17T19:09:32.300Z,25.40
2018-07-17T19:11:59.917Z,25.30
2018-07-17T19:14:27.505Z,25.20
2018-07-17T19:16:55.202Z,25.20
2018-07-17T19:19:22.882Z,25.10
2018-07-17T19:21:50.480Z,24.90
2018-07-17T19:24:18.102Z,24.70
2018-07-17T19:26:45.670Z,24.70
2018-07-17T19:29:13.331Z,24.60
2018-07-17T19:31:40.918Z,24.50
2018-07-17T19:36:36.044Z,24.50
2018-07-17T19:41:33.140Z,24.30
2018-07-17T19:44:00.778Z,24.30
2018-07-17T19:46:28.465Z,24.20
2018-07-17T19:48:56.061Z,24.00
2018-07-17T19:51:23.656Z,23.90
2018-07-17T19:53:51.304Z,23.80
2018-07-17T19:56:18.980Z,23.70
2018-07-17T19:58:46.627Z,23.60
2018-07-17T20:01:14.328Z,23.50
2018-07-17T20:03:41.972Z,23.40
2018-07-17T20:06:09.597Z,23.40
2018-07-17T20:08:37.295Z,23.30
2018-07-17T20:11:04.920Z,23.20
2018-07-17T20:13:32.600Z,23.10
2018-07-17T20:16:00.210Z,23.00
2018-07-17T20:18:27.870Z,23.00
2018-07-17T20:20:55.544Z,22.90
2018-07-17T20:23:23.221Z,22.80
2018-07-17T20:25:51.019Z,22.70
2018-07-17T20:28:18.748Z,22.50
2018-07-17T20:30:46.414Z,22.40
2018-07-17T20:33:14.078Z,22.20
2018-07-17T20:35:41.694Z,22.10
2018-07-17T20:38:09.453Z,22.00
2018-07-17T20:40:37.132Z,21.80
2018-07-17T20:43:05.274Z,21.70
2018-07-17T20:45:32.997Z,21.60
2018-07-17T20:48:00.591Z,21.50
2018-07-17T20:50:28.281Z,21.50
2018-07-17T20:52:56.095Z,21.40
2018-07-17T20:55:23.720Z,21.50
2018-07-17T20:57:51.419Z,21.40
2018-07-17T21:00:19.261Z,21.20
2018-07-17T21:02:46.872Z,21.10
2018-07-17T21:05:14.577Z,21.00
2018-07-17T21:07:42.230Z,21.00
2018-07-17T21:10:09.899Z,20.90
2018-07-17T21:12:37.553Z,20.70
2018-07-17T21:15:05.462Z,20.70
2018-07-17T21:17:33.383Z,20.70
2018-07-17T21:20:01.047Z,20.60
2018-07-17T21:22:28.738Z,20.60
2018-07-17T21:24:56.517Z,20.50
2018-07-17T21:27:24.149Z,20.50
2018-07-17T21:29:51.757Z,20.40
2018-07-17T21:32:19.686Z,20.20
2018-07-17T21:34:47.317Z,20.30
2018-07-17T21:37:14.941Z,20.20
2018-07-17T21:39:42.529Z,20.10
2018-07-17T21:42:10.097Z,20.20
2018-07-17T21:44:37.747Z,20.20
2018-07-17T21:47:05.331Z,20.10
2018-07-17T21:49:32.952Z,20.10
2018-07-17T21:52:00.600Z,20.00
2018-07-17T21:54:28.268Z,20.00
2018-07-17T21:56:55.857Z,19.80
2018-07-17T21:59:23.479Z,19.70
2018-07-17T22:04:25.509Z,19.70
2018-07-17T22:06:53.208Z,19.70
2018-07-17T22:09:20.800Z,19.60
2018-07-17T22:11:48.446Z,19.70
2018-07-17T22:14:16.072Z,19.60
2018-07-17T22:16:43.712Z,19.60
2018-07-17T22:19:11.324Z,19.70
2018-07-17T22:21:38.903Z,19.70
2018-07-17T22:24:06.476Z,19.60
2018-07-17T22:26:34.110Z,19.40
2018-07-17T22:29:01.708Z,19.30
2018-07-17T22:31:29.326Z,19.20
2018-07-17T22:33:56.945Z,19.10
2018-07-17T22:36:24.611Z,19.00
2018-07-17T22:38:52.216Z,19.00
2018-07-17T22:41:19.877Z,18.90
2018-07-17T22:43:47.465Z,18.80
2018-07-17T22:46:15.121Z,18.80
2018-07-17T22:48:42.716Z,18.80
2018-07-17T22:51:10.319Z,18.70
2018-07-17T22:53:37.965Z,18.60
2018-07-17T22:58:33.060Z,18.40
2018-07-17T23:01:00.629Z,18.30
2018-07-17T23:03:28.233Z,18.30
2018-07-17T23:05:55.899Z,18.30
2018-07-17T23:08:23.502Z,18.20
2018-07-17T23:10:51.130Z,18.10
2018-07-17T23:13:18.917Z,18.10
2018-07-17T23:15:46.510Z,18.00
2018-07-17T23:18:14.173Z,18.00
2018-07-17T23:20:41.766Z,17.90
2018-07-17T23:23:09.400Z,17.80
2018-07-17T23:25:37.031Z,17.80
2018-07-17T23:28:04.635Z,17.90
2018-07-17T23:30:32.242Z,17.90
2018-07-17T23:32:59.882Z,18.00
2018-07-17T23:35:27.454Z,17.90
2018-07-17T23:37:55.088Z,17.80
2018-07-17T23:40:23.043Z,17.70
2018-07-17T23:42:50.706Z,17.70
2018-07-17T23:45:18.533Z,17.70
2018-07-17T23:47:46.920Z,17.60
2018-07-17T23:52:42.060Z,17.60
2018-07-17T23:55:09.665Z,17.50
2018-07-17T23:57:37.237Z,17.50
